Time;durP1;ratioP1;P1;durP2;ratioP2;P2;SDS_P1;SDS_P2;PMS_P1;PMS_P2;Temp;Humidity;BMP_temperature;BMP_pressure;BME280_temperature;BME280_humidity;BME280_pressure;Samples;Min_cycle;Max_cycle;Signal;HPM_P1;HPM_P2
2023/08/05 00:01:07;;;;;;;5.03;3.63;;;;;;;14.38;100.00;101609.22;4978613;28;20117;-94
2023/08/05 00:03:36;;;;;;;7.43;3.80;;;;;;;14.36;100.00;101588.97;4960014;28;20122;-94
2023/08/05 00:06:01;;;;;;;6.60;3.80;;;;;;;14.33;100.00;101576.06;4967261;28;20393;-93
2023/08/05 00:08:26;;;;;;;5.07;3.70;;;;;;;14.36;100.00;101586.28;5004070;28;20273;-93
2023/08/05 00:10:51;;;;;;;5.03;3.77;;;;;;;14.44;100.00;101591.19;5017221;28;20038;-94
2023/08/05 00:13:17;;;;;;;6.57;4.20;;;;;;;14.37;100.00;101583.34;5017885;28;20040;-94
2023/08/05 00:15:43;;;;;;;5.43;3.90;;;;;;;14.44;100.00;101590.34;5011172;28;20062;-93
2023/08/05 00:18:09;;;;;;;6.75;3.67;;;;;;;14.39;100.00;101581.19;4982092;28;20029;-94
2023/08/05 00:20:34;;;;;;;5.97;3.97;;;;;;;14.44;100.00;101584.97;4998697;28;20058;-94
2023/08/05 00:23:00;;;;;;;6.50;3.80;;;;;;;14.36;100.00;101573.63;4998179;28;20030;-93
2023/08/05 00:25:25;;;;;;;6.03;3.65;;;;;;;14.35;100.00;101579.28;4981177;28;20070;-93
2023/08/05 00:27:50;;;;;;;8.73;3.93;;;;;;;14.37;100.00;101579.81;4974902;28;20105;-94
2023/08/05 00:30:16;;;;;;;7.50;3.90;;;;;;;14.43;100.00;101583.34;4982663;28;20090;-94
2023/08/05 00:41:22;;;;;;;7.60;4.07;;;;;;;14.24;100.00;101556.88;6074263;23;20044;-94
2023/08/05 00:43:47;;;;;;;8.27;3.83;;;;;;;14.36;100.00;101570.94;4975795;28;20034;-94
2023/08/05 00:46:13;;;;;;;8.27;4.07;;;;;;;14.27;100.00;101569.03;4997468;28;20057;-94
2023/08/05 00:48:39;;;;;;;5.25;3.95;;;;;;;14.25;100.00;101566.56;4995958;28;20037;-93
2023/08/05 00:51:06;;;;;;;8.13;3.90;;;;;;;14.30;100.00;101569.28;4994886;28;20049;-94
2023/08/05 00:53:34;;;;;;;5.60;3.80;;;;;;;14.24;100.00;101557.69;4993139;28;20432;-94
2023/08/05 00:55:59;;;;;;;10.05;4.15;;;;;;;14.19;100.00;101551.47;4993568;28;20026;-95
2023/08/05 00:58:26;;;;;;;5.13;3.47;;;;;;;14.12;100.00;101548.19;4992701;28;20029;-95
2023/08/05 01:00:51;;;;;;;11.73;3.78;;;;;;;13.99;100.00;101536.03;4993170;28;20034;-94
2023/08/05 01:03:17;;;;;;;8.50;4.20;;;;;;;13.97;100.00;101543.59;4992309;28;20037;-94
2023/08/05 01:05:43;;;;;;;7.20;4.18;;;;;;;13.88;100.00;101540.56;4991604;28;20063;-93
2023/08/05 01:08:10;;;;;;;6.90;3.80;;;;;;;13.84;100.00;101545.66;4991303;28;20138;-95
2023/08/05 01:10:36;;;;;;;6.03;4.00;;;;;;;13.76;100.00;101544.28;4988667;28;20048;-94
2023/08/05 01:13:01;;;;;;;5.97;3.63;;;;;;;13.65;100.00;101539.91;4992002;28;20277;-93
2023/08/05 01:15:27;;;;;;;7.20;3.63;;;;;;;13.61;100.00;101546.91;4981113;28;20074;-94
2023/08/05 01:17:55;;;;;;;6.60;3.97;;;;;;;13.56;100.00;101536.09;4988006;28;20153;-94
2023/08/05 01:20:27;;;;;;;6.35;4.07;;;;;;;13.40;100.00;101516.31;4991823;28;20054;-94
2023/08/05 01:22:56;;;;;;;6.95;3.80;;;;;;;13.32;100.00;101518.41;4989687;28;20058;-94
2023/08/05 01:25:32;;;;;;;7.13;3.67;;;;;;;13.30;100.00;101517.06;4972981;28;20089;-94
2023/08/05 01:28:00;;;;;;;5.95;3.70;;;;;;;13.22;100.00;101520.22;4973309;28;20030;-94
2023/08/05 01:30:27;;;;;;;6.40;3.60;;;;;;;13.23;100.00;101530.75;4992053;28;20161;-94
2023/08/05 01:32:53;;;;;;;6.65;3.70;;;;;;;13.14;100.00;101522.34;4973320;28;20038;-94
2023/08/05 01:35:22;;;;;;;4.87;3.53;;;;;;;13.16;100.00;101528.25;4977668;28;20015;-93
2023/08/05 01:37:48;;;;;;;6.20;4.10;;;;;;;13.10;100.00;101526.63;4991095;28;20282;-93
2023/08/05 01:40:14;;;;;;;4.50;3.50;;;;;;;12.97;100.00;101505.50;4990964;28;20041;-93
2023/08/05 01:42:39;;;;;;;6.67;4.00;;;;;;;13.01;100.00;101528.97;5006401;28;20026;-94
2023/08/05 01:45:05;;;;;;;6.40;3.53;;;;;;;12.79;100.00;101502.16;5002857;28;20286;-93
2023/08/05 01:47:30;;;;;;;6.78;4.40;;;;;;;12.81;100.00;101515.34;4988586;28;20034;-93
2023/08/05 01:49:56;;;;;;;7.43;4.00;;;;;;;12.77;100.00;101516.91;4972188;28;20051;-94
2023/08/05 01:52:21;;;;;;;7.03;4.17;;;;;;;12.72;100.00;101513.13;4971892;28;20027;-94
2023/08/05 01:54:47;;;;;;;4.40;3.90;;;;;;;12.84;100.00;101521.03;4990815;28;20034;-93
2023/08/05 01:57:12;;;;;;;7.93;4.80;;;;;;;12.93;100.00;101512.50;4991115;28;20041;-94
2023/08/05 01:59:37;;;;;;;7.07;4.20;;;;;;;12.99;100.00;101522.22;4991199;28;20023;-93
2023/08/05 02:02:03;;;;;;;8.63;4.50;;;;;;;13.10;100.00;101520.41;4991355;28;20426;-94
2023/08/05 02:04:28;;;;;;;11.13;4.70;;;;;;;13.16;100.00;101514.00;4986697;28;20446;-93
2023/08/05 02:06:53;;;;;;;7.53;4.80;;;;;;;13.27;100.00;101515.69;4986532;28;20390;-94
2023/08/05 02:09:19;;;;;;;8.17;4.63;;;;;;;13.35;100.00;101517.09;4978199;28;20034;-93
2023/08/05 02:11:44;;;;;;;6.75;4.60;;;;;;;13.50;100.00;101524.47;4973516;28;20114;-94
2023/08/05 02:14:09;;;;;;;7.87;4.73;;;;;;;13.61;100.00;101528.84;4991274;28;20037;-93
2023/08/05 02:16:35;;;;;;;10.13;4.87;;;;;;;13.58;100.00;101515.94;4990516;28;20027;-94
2023/08/05 02:19:01;;;;;;;7.63;4.83;;;;;;;13.58;100.00;101509.72;4989457;28;20093;-94
2023/08/05 02:21:26;;;;;;;8.00;4.63;;;;;;;13.60;100.00;101518.34;4989588;28;20058;-94
2023/08/05 02:23:52;;;;;;;6.33;5.23;;;;;;;13.58;100.00;101523.19;4990561;28;20034;-93
2023/08/05 02:26:17;;;;;;;8.32;5.60;;;;;;;13.50;100.00;101523.69;4989578;28;20070;-94
2023/08/05 02:28:44;;;;;;;8.37;5.23;;;;;;;13.35;100.00;101525.16;4990690;28;20033;-94
2023/08/05 02:31:09;;;;;;;10.40;5.28;;;;;;;13.24;100.00;101513.50;4990986;28;20074;-95
2023/08/05 02:33:35;;;;;;;6.50;5.40;;;;;;;13.17;100.00;101515.63;4989766;28;20046;-93
2023/08/05 02:36:01;;;;;;;8.15;5.03;;;;;;;13.14;100.00;101514.28;4989409;28;20045;-93
2023/08/05 02:38:26;;;;;;;7.67;5.73;;;;;;;13.09;100.00;101508.03;4989549;28;20019;-94
2023/08/05 02:40:52;;;;;;;8.90;5.43;;;;;;;13.08;100.00;101511.78;4989786;28;20022;-93
2023/08/05 02:43:17;;;;;;;9.17;5.47;;;;;;;12.90;100.00;101483.41;4972386;28;20446;-93
2023/08/05 02:45:43;;;;;;;8.68;5.63;;;;;;;12.95;100.00;101496.91;4972578;28;20390;-94
2023/08/05 02:48:08;;;;;;;7.13;5.37;;;;;;;12.98;100.00;101509.81;4991363;28;20070;-94
2023/08/05 02:50:33;;;;;;;13.10;6.33;;;;;;;12.97;100.00;101500.13;4994821;28;20126;-94
2023/08/05 02:52:59;;;;;;;8.30;5.70;;;;;;;12.76;100.00;101467.72;4993616;28;20179;-94
2023/08/05 02:55:24;;;;;;;8.80;5.80;;;;;;;12.83;100.00;101489.00;4995845;28;20014;-92
2023/08/05 02:57:49;;;;;;;10.55;6.45;;;;;;;12.85;100.00;101498.44;5008897;28;20542;-91
2023/08/05 03:00:15;;;;;;;12.63;6.50;;;;;;;12.83;100.00;101487.13;4963991;28;20577;-91
2023/08/05 03:02:40;;;;;;;9.90;6.40;;;;;;;12.80;100.00;101493.00;5005958;28;20007;-92
2023/08/05 03:05:06;;;;;;;8.30;6.07;;;;;;;12.75;100.00;101489.47;5001256;28;20065;-90
2023/08/05 03:07:31;;;;;;;11.93;5.97;;;;;;;12.63;100.00;101476.19;4980250;28;20129;-93
2023/08/05 03:09:57;;;;;;;8.83;6.00;;;;;;;12.71;100.00;101497.25;4985470;28;20540;-92
2023/08/05 03:12:22;;;;;;;10.00;6.40;;;;;;;12.63;100.00;101474.34;4989169;28;20030;-93
2023/08/05 03:14:47;;;;;;;11.43;6.70;;;;;;;12.65;100.00;101477.56;4993439;28;20065;-93
2023/08/05 03:17:13;;;;;;;9.37;7.17;;;;;;;12.64;100.00;101464.38;4992887;28;20500;-92
2023/08/05 03:19:38;;;;;;;13.07;7.30;;;;;;;12.59;100.00;101458.97;4993707;28;20033;-93
2023/08/05 03:22:03;;;;;;;12.50;7.00;;;;;;;12.59;100.00;101467.03;4984547;28;20019;-93
2023/08/05 03:24:29;;;;;;;11.03;6.70;;;;;;;12.62;100.00;101470.03;4993669;28;20410;-93
2023/08/05 03:26:54;;;;;;;13.10;7.00;;;;;;;12.57;100.00;101465.41;4993051;28;20587;-93
2023/08/05 03:29:19;;;;;;;9.90;6.90;;;;;;;12.54;100.00;101455.16;4991063;28;20372;-93
2023/08/05 03:31:45;;;;;;;11.60;7.10;;;;;;;12.59;100.00;101467.03;4993277;28;20026;-93
2023/08/05 03:34:10;;;;;;;16.07;7.73;;;;;;;12.55;100.00;101467.53;4992276;28;20807;-92
2023/08/05 03:36:36;;;;;;;15.80;7.40;;;;;;;12.50;100.00;101456.75;4993131;28;20038;-93
2023/08/05 03:39:02;;;;;;;13.57;7.13;;;;;;;12.55;100.00;101456.78;4993220;28;20026;-93
2023/08/05 03:41:27;;;;;;;9.68;6.90;;;;;;;12.47;100.00;101453.75;4975914;28;20111;-93
2023/08/05 03:43:53;;;;;;;12.03;7.40;;;;;;;12.40;100.00;101437.84;4993174;28;20058;-92
2023/08/05 03:46:18;;;;;;;10.67;7.63;;;;;;;12.34;100.00;101433.47;4990723;28;20023;-92
2023/08/05 03:48:44;;;;;;;10.70;7.33;;;;;;;12.32;100.00;101432.91;4993812;28;20026;-92
2023/08/05 03:51:09;;;;;;;10.35;7.25;;;;;;;12.34;100.00;101428.91;4989933;28;20034;-93
2023/08/05 03:53:35;;;;;;;9.10;6.97;;;;;;;12.28;100.00;101419.19;4982484;28;20430;-93
2023/08/05 03:56:01;;;;;;;12.05;7.50;;;;;;;12.23;100.00;101414.56;4992923;28;20466;-93
2023/08/05 03:58:26;;;;;;;10.70;7.03;;;;;;;12.32;100.00;101430.22;4989997;28;20022;-92
2023/08/05 04:00:51;;;;;;;11.20;7.60;;;;;;;12.36;100.00;101428.66;4991972;28;20073;-93
2023/08/05 04:03:17;;;;;;;15.18;7.57;;;;;;;12.26;100.00;101416.75;4991278;28;20042;-92
2023/08/05 04:05:44;;;;;;;13.33;7.70;;;;;;;12.36;100.00;101421.41;4992553;28;20430;-93
2023/08/05 04:08:11;;;;;;;13.70;8.18;;;;;;;12.33;100.00;101404.97;4993033;28;20106;-93
2023/08/05 04:10:38;;;;;;;12.20;7.80;;;;;;;12.42;100.00;101411.50;4992400;28;20030;-93
2023/08/05 04:13:04;;;;;;;10.88;7.05;;;;;;;12.38;100.00;101397.78;4975205;28;20061;-92
2023/08/05 04:15:33;;;;;;;10.15;6.97;;;;;;;12.47;100.00;101416.94;4994339;28;20030;-92
2023/08/05 04:18:00;;;;;;;10.35;7.95;;;;;;;12.48;100.00;101415.06;5014026;28;20026;-92
2023/08/05 04:20:27;;;;;;;10.43;7.43;;;;;;;12.45;100.00;101418.25;4991926;28;20030;-92
2023/08/05 04:22:53;;;;;;;12.95;7.55;;;;;;;12.48;100.00;101428.50;4997766;28;20034;-92
2023/08/05 04:25:18;;;;;;;14.17;7.67;;;;;;;12.47;100.00;101405.38;5006323;28;20352;-92
2023/08/05 04:27:43;;;;;;;11.13;8.30;;;;;;;12.57;100.00;101405.44;4991962;28;20014;-93
2023/08/05 04:30:09;;;;;;;15.20;8.87;;;;;;;12.62;100.00;101399.28;4991874;28;20285;-92
2023/08/05 04:32:34;;;;;;;11.47;9.00;;;;;;;12.63;100.00;101398.22;4991493;28;20152;-92
2023/08/05 04:35:00;;;;;;;15.27;8.27;;;;;;;12.67;100.00;101391.28;4982695;28;20031;-93
2023/08/05 04:37:27;;;;;;;12.60;8.30;;;;;;;12.72;100.00;101389.44;4992412;28;20038;-92
2023/08/05 04:39:53;;;;;;;12.53;8.53;;;;;;;12.76;100.00;101380.84;4973335;28;20030;-93
2023/08/05 04:42:18;;;;;;;14.50;8.93;;;;;;;12.82;100.00;101383.31;4986656;28;20368;-93
2023/08/05 04:44:45;;;;;;;13.47;9.30;;;;;;;12.78;100.00;101365.25;4987923;28;20028;-95
2023/08/05 04:47:11;;;;;;;17.38;10.15;;;;;;;12.90;100.00;101375.84;4991653;28;20033;-93
2023/08/05 04:49:40;;;;;;;15.85;8.95;;;;;;;12.92;100.00;101373.69;5008282;28;20084;-96
2023/08/05 05:00:39;;;;;;;14.07;8.23;;;;;;;12.76;100.00;101335.97;5447409;23;20320;-96
2023/08/05 05:03:07;;;;;;;14.27;9.18;;;;;;;12.98;100.00;101365.38;4994192;28;20011;-96
2023/08/05 05:05:34;;;;;;;14.48;8.70;;;;;;;13.03;100.00;101372.66;4993723;28;20034;-96
2023/08/05 05:08:00;;;;;;;11.65;8.70;;;;;;;12.91;100.00;101347.88;4991742;28;20041;-96
2023/08/05 05:10:32;;;;;;;15.90;9.18;;;;;;;13.05;100.00;101358.97;4990986;28;20027;-95
2023/08/05 05:12:58;;;;;;;15.27;8.35;;;;;;;13.11;100.00;101369.50;4994005;28;20023;-96
2023/08/05 05:15:24;;;;;;;13.83;8.70;;;;;;;13.11;100.00;101358.75;4976075;28;20030;-95
2023/08/05 05:17:50;;;;;;;13.77;8.35;;;;;;;12.97;100.00;101323.41;4992285;28;20027;-96
2023/08/05 05:20:16;;;;;;;12.27;8.90;;;;;;;13.07;100.00;101327.22;4996307;28;20006;-96
2023/08/05 05:22:42;;;;;;;14.63;9.43;;;;;;;13.13;100.00;101331.56;4992040;28;20042;-96
2023/08/05 05:25:07;;;;;;;16.20;9.63;;;;;;;13.43;100.00;101371.28;4997287;28;20011;-96
2023/08/05 05:27:34;;;;;;;16.33;10.00;;;;;;;13.48;100.00;101373.16;4998069;28;20054;-96
2023/08/05 05:30:00;;;;;;;15.07;8.95;;;;;;;13.56;100.00;101382.63;4981626;28;20015;-96
2023/08/05 05:32:26;;;;;;;12.75;9.07;;;;;;;13.41;100.00;101333.03;4997290;28;20026;-96
2023/08/05 05:34:51;;;;;;;13.67;9.50;;;;;;;13.48;100.00;101328.22;4997433;28;20031;-94
2023/08/05 05:37:17;;;;;;;16.13;9.30;;;;;;;13.62;100.00;101331.19;4995051;28;20136;-95
2023/08/05 05:39:52;;;;;;;13.93;8.20;;;;;;;13.63;100.00;101326.63;4986126;28;20034;-96
2023/08/05 05:42:19;;;;;;;11.65;8.88;;;;;;;13.71;100.00;101320.72;4981613;28;20057;-93
2023/08/05 05:44:50;;;;;;;14.87;9.23;;;;;;;14.06;100.00;101351.47;4994255;28;20015;-96
2023/08/05 05:47:16;;;;;;;14.93;9.30;;;;;;;14.17;100.00;101356.88;4975001;28;20633;-95
2023/08/05 05:49:42;;;;;;;14.32;9.45;;;;;;;14.23;100.00;101343.13;4977539;28;20125;-91
2023/08/05 05:52:07;;;;;;;13.57;9.13;;;;;;;14.39;100.00;101335.84;4981351;28;20078;-96
2023/08/05 05:54:33;;;;;;;18.00;9.52;;;;;;;14.36;100.00;101314.81;4948992;29;20031;-95
2023/08/05 05:56:58;;;;;;;13.27;8.77;;;;;;;14.58;100.00;101321.81;4972306;28;20023;-95
2023/08/05 05:59:25;;;;;;;13.50;9.17;;;;;;;15.00;100.00;101349.50;4977133;28;20553;-95
2023/08/05 06:01:55;;;;;;;14.47;9.23;;;;;;;15.16;100.00;101320.56;4991043;28;20713;-96
2023/08/05 06:04:27;;;;;;;16.73;8.98;;;;;;;15.80;100.00;101360.47;4985418;28;20086;-96
2023/08/05 06:06:54;;;;;;;15.82;8.38;;;;;;;15.64;100.00;101313.84;4990069;28;20494;-96
2023/08/05 06:17:34;;;;;;;12.07;7.55;;;;;;;16.13;100.00;101304.84;5330771;23;20030;-96
2023/08/05 06:20:03;;;;;;;11.80;7.65;;;;;;;16.21;100.00;101306.13;4985370;28;20170;-95
2023/08/05 06:25:04;;;;;;;11.37;7.27;;;;;;;16.60;100.00;101334.19;5240504;23;20038;-94
2023/08/05 06:27:30;;;;;;;11.07;7.93;;;;;;;16.75;100.00;101325.06;5002501;28;20360;-93
2023/08/05 06:29:56;;;;;;;14.25;7.63;;;;;;;16.68;100.00;101333.53;5001788;28;20081;-96
2023/08/05 06:32:22;;;;;;;9.00;6.65;;;;;;;16.75;100.00;101347.53;4985443;28;20034;-92
2023/08/05 06:34:47;;;;;;;10.30;6.27;;;;;;;16.95;100.00;101348.44;4997520;28;20030;-95
2023/08/05 06:37:12;;;;;;;10.50;6.73;;;;;;;17.09;100.00;101346.66;4996320;28;20022;-94
2023/08/05 06:39:40;;;;;;;12.40;6.70;;;;;;;16.85;100.00;101303.31;4987134;28;20091;-93
2023/08/05 06:42:06;;;;;;;9.70;5.63;;;;;;;17.11;100.00;101316.56;4960672;28;20050;-91
2023/08/05 06:44:32;;;;;;;12.10;6.10;;;;;;;17.39;100.00;101346.56;4974605;28;20042;-91
2023/08/05 06:46:58;;;;;;;10.93;5.73;;;;;;;17.47;100.00;101339.66;4957815;28;20035;-93
2023/08/05 06:49:23;;;;;;;9.83;5.43;;;;;;;17.42;100.00;101351.41;4978645;28;20305;-94
2023/08/05 06:51:50;;;;;;;9.03;4.87;;;;;;;17.45;100.00;101352.69;4978647;28;20035;-95
2023/08/05 06:54:16;;;;;;;9.00;5.05;;;;;;;17.44;100.00;101340.25;4978467;28;20046;-96
2023/08/05 06:56:41;;;;;;;6.23;5.00;;;;;;;17.47;100.00;101331.53;4980833;28;20003;-95
2023/08/05 06:59:06;;;;;;;6.13;4.57;;;;;;;17.68;100.00;101329.34;4996260;28;20374;-96
2023/08/05 07:01:32;;;;;;;7.43;4.70;;;;;;;17.66;100.00;101326.94;4977118;28;20027;-96
2023/08/05 07:03:57;;;;;;;7.38;4.32;;;;;;;17.80;100.00;101321.56;4969204;28;20038;-96
2023/08/05 07:06:24;;;;;;;5.90;4.27;;;;;;;18.08;100.00;101332.56;4997150;28;20727;-95
2023/08/05 07:08:49;;;;;;;6.13;4.32;;;;;;;18.14;100.00;101314.28;4969961;28;20037;-96
2023/08/05 07:11:16;;;;;;;6.23;4.70;;;;;;;17.82;100.00;101311.22;4989366;28;20050;-96
2023/08/05 07:13:42;;;;;;;7.85;4.18;;;;;;;17.99;100.00;101310.72;4979867;28;20026;-96
2023/08/05 07:16:11;;;;;;;6.40;4.00;;;;;;;18.13;100.00;101304.53;4972882;28;20023;-94
2023/08/05 07:18:37;;;;;;;7.00;4.28;;;;;;;18.01;100.00;101313.97;5000930;28;20011;-95
2023/08/05 07:21:02;;;;;;;5.47;4.10;;;;;;;18.28;100.00;101308.91;4985421;28;20066;-95
2023/08/05 07:23:27;;;;;;;9.83;4.10;;;;;;;18.44;100.00;101306.72;4982091;28;20031;-96
2023/08/05 07:25:53;;;;;;;4.70;3.63;;;;;;;18.55;100.00;101307.31;4983642;28;20045;-94
2023/08/05 07:28:18;;;;;;;4.68;3.25;;;;;;;18.71;100.00;101311.38;4982057;28;20149;-96
2023/08/05 07:30:44;;;;;;;5.87;3.17;;;;;;;18.82;100.00;101309.22;4996781;28;20033;-96
2023/08/05 07:33:11;;;;;;;4.77;2.90;;;;;;;18.56;100.00;101298.88;4986327;28;20039;-95
2023/08/05 07:35:37;;;;;;;4.35;2.83;;;;;;;18.91;100.00;101314.75;4977860;28;20118;-93
2023/08/05 07:38:04;;;;;;;5.63;3.30;;;;;;;18.99;100.00;101319.53;4982848;28;20058;-94
2023/08/05 07:40:34;;;;;;;7.10;2.83;;;;;;;19.06;100.00;101310.97;4955837;28;20031;-93
2023/08/05 07:42:59;;;;;;;3.83;2.85;;;;;;;19.28;100.00;101302.06;4962799;28;20031;-93
2023/08/05 07:45:26;;;;;;;3.73;2.80;;;;;;;19.31;99.35;101306.09;4974970;28;20386;-94
2023/08/05 07:47:56;;;;;;;5.30;3.15;;;;;;;19.59;100.00;101308.72;4973961;28;20386;-95
2023/08/05 07:50:22;;;;;;;4.18;2.88;;;;;;;19.86;97.58;101304.31;4961093;28;20391;-92
2023/08/05 07:52:51;;;;;;;3.35;3.05;;;;;;;20.05;96.87;101294.06;4979744;28;20043;-93
2023/08/05 07:55:16;;;;;;;4.22;3.15;;;;;;;20.15;93.98;101298.44;4976916;28;20027;-93
2023/08/05 07:57:46;;;;;;;3.87;2.70;;;;;;;20.36;94.64;101293.25;4958919;28;20105;-92
2023/08/05 08:00:13;;;;;;;5.57;3.40;;;;;;;20.42;91.10;101275.69;4976690;28;20106;-93
2023/08/05 08:02:42;;;;;;;4.38;2.78;;;;;;;20.60;92.96;101267.56;4957985;28;20038;-95
2023/08/05 08:05:08;;;;;;;4.45;3.10;;;;;;;20.60;93.82;101267.56;4974388;28;20023;-92
2023/08/05 08:07:33;;;;;;;4.57;2.87;;;;;;;20.67;94.36;101278.78;4970348;28;20035;-92
2023/08/05 08:09:58;;;;;;;3.13;2.73;;;;;;;20.81;93.13;101267.03;4974374;28;20313;-94
2023/08/05 08:12:24;;;;;;;3.77;3.10;;;;;;;20.90;90.95;101281.44;4974124;28;20030;-90
2023/08/05 08:14:49;;;;;;;4.57;2.90;;;;;;;21.03;88.20;101266.09;4976137;28;20563;-91
2023/08/05 08:17:16;;;;;;;4.57;3.20;;;;;;;20.96;85.53;101258.41;4997088;28;20042;-94
2023/08/05 08:19:41;;;;;;;4.90;2.85;;;;;;;20.97;88.86;101265.44;4975379;28;20030;-94
2023/08/05 08:22:07;;;;;;;4.30;3.00;;;;;;;21.14;87.60;101259.19;4973451;28;20027;-93
2023/08/05 08:24:32;;;;;;;4.70;2.70;;;;;;;21.36;86.27;101243.81;4968923;28;20042;-92
2023/08/05 08:26:58;;;;;;;4.73;2.60;;;;;;;21.38;84.73;101247.03;4985466;28;20463;-92
2023/08/05 08:29:23;;;;;;;2.53;2.15;;;;;;;21.65;84.07;101252.50;4958557;28;20114;-92
2023/08/05 08:31:48;;;;;;;3.70;2.40;;;;;;;21.43;78.40;101243.34;4976304;28;20081;-94
2023/08/05 08:34:13;;;;;;;6.13;2.53;;;;;;;21.17;82.24;101233.25;4975750;28;20058;-94
2023/08/05 08:36:39;;;;;;;4.50;2.37;;;;;;;21.14;83.32;101237.41;4975493;28;20372;-94
2023/08/05 08:39:04;;;;;;;4.33;2.03;;;;;;;21.35;83.44;101236.00;4975578;28;20027;-94
2023/08/05 08:41:41;;;;;;;3.03;2.27;;;;;;;21.78;81.18;101224.22;4968309;28;20074;-93
2023/08/05 08:44:08;;;;;;;2.22;2.03;;;;;;;21.89;80.57;101220.03;4980397;28;20094;-92
2023/08/05 08:46:33;;;;;;;3.95;2.05;;;;;;;21.96;77.79;101226.91;4966129;28;20023;-95
2023/08/05 08:48:59;;;;;;;6.00;2.67;;;;;;;21.86;77.75;101215.22;4972184;28;20035;-91
2023/08/05 08:51:25;;;;;;;5.00;2.30;;;;;;;21.38;80.48;101210.78;4982408;28;20026;-94
2023/08/05 08:53:51;;;;;;;4.20;2.10;;;;;;;21.12;79.88;101204.22;4974665;28;20046;-95
2023/08/05 08:56:16;;;;;;;3.80;2.10;;;;;;;21.23;84.15;101185.63;4977171;28;20034;-93
2023/08/05 08:58:42;;;;;;;4.47;2.23;;;;;;;21.17;78.79;101192.41;4969712;28;20035;-95
2023/08/05 09:01:08;;;;;;;4.00;1.90;;;;;;;20.93;79.86;101199.09;4974866;28;20025;-95
2023/08/05 09:03:36;;;;;;;2.33;1.95;;;;;;;20.96;79.95;101193.03;4991711;28;20486;-93
2023/08/05 09:06:03;;;;;;;3.10;2.08;;;;;;;21.39;80.02;101196.84;4985552;28;20088;-96
2023/08/05 09:08:35;;;;;;;2.50;1.95;;;;;;;21.58;78.32;101190.25;4991185;28;20070;-96
2023/08/05 09:11:01;;;;;;;3.35;2.38;;;;;;;21.65;77.14;101195.22;4974361;28;20027;-96
2023/08/05 09:14:04;;;;;;;4.38;2.33;;;;;;;21.58;81.42;101190.25;4995260;28;20043;-96
2023/08/05 09:16:30;;;;;;;2.20;1.70;;;;;;;21.48;78.83;101180.47;4995232;28;20038;-96
2023/08/05 09:19:07;;;;;;;4.93;2.30;;;;;;;21.59;79.91;101173.56;4977202;28;20273;-96
2023/08/05 09:21:34;;;;;;;3.75;2.30;;;;;;;21.42;79.70;101147.16;5021128;23;20034;-95
2023/08/05 09:24:02;;;;;;;2.85;2.00;;;;;;;21.38;79.36;101140.75;5010938;28;20022;-96
2023/08/05 09:26:29;;;;;;;3.78;2.20;;;;;;;21.24;79.14;101137.41;5011388;28;20029;-95
2023/08/05 09:28:56;;;;;;;4.57;2.25;;;;;;;21.12;79.47;101117.06;5012833;28;20011;-96
2023/08/05 09:31:21;;;;;;;4.45;2.47;;;;;;;21.33;78.11;101128.09;5011061;28;20030;-95
2023/08/05 09:33:54;;;;;;;2.63;1.80;;;;;;;21.16;80.06;101104.38;4993682;28;20027;-96
2023/08/05 09:36:39;;;;;;;4.47;2.28;;;;;;;21.60;79.32;101139.75;4993509;28;20046;-96
2023/08/05 09:39:11;;;;;;;3.05;2.10;;;;;;;21.62;77.67;101104.00;4997577;28;20034;-95
2023/08/05 09:41:48;;;;;;;3.40;2.30;;;;;;;21.90;74.91;101117.19;4994640;28;20093;-96
2023/08/05 09:44:14;;;;;;;3.33;2.30;;;;;;;21.84;76.00;101100.19;4991595;28;20027;-95
2023/08/05 09:46:49;;;;;;;3.77;2.50;;;;;;;21.84;76.66;101105.66;4995255;28;20023;-94
2023/08/05 09:49:20;;;;;;;3.75;2.25;;;;;;;21.63;75.51;101111.84;4990618;28;20054;-95
2023/08/05 09:51:47;;;;;;;3.08;2.33;;;;;;;21.08;77.57;101088.88;4983624;28;20030;-96
2023/08/05 09:54:30;;;;;;;3.83;2.20;;;;;;;21.41;79.66;101125.66;4986169;28;20070;-96
2023/08/05 09:56:59;;;;;;;3.72;2.22;;;;;;;21.45;79.47;101080.28;5014356;28;20125;-95
2023/08/05 09:59:25;;;;;;;4.10;2.50;;;;;;;21.36;77.71;101074.06;5006489;28;20019;-95
2023/08/05 10:01:52;;;;;;;2.57;2.37;;;;;;;21.01;78.12;101069.50;4988755;28;20035;-96
2023/08/05 10:04:18;;;;;;;3.33;2.37;;;;;;;20.94;79.17;101075.44;4985152;28;20340;-92
2023/08/05 10:06:43;;;;;;;3.35;2.40;;;;;;;20.89;81.03;101089.19;4971499;28;20031;-94
2023/08/05 10:09:09;;;;;;;4.53;2.83;;;;;;;20.58;81.54;101074.59;4963928;28;20093;-92
2023/08/05 10:11:38;;;;;;;6.13;2.57;;;;;;;20.88;82.29;101093.03;4971638;28;20030;-92
2023/08/05 10:14:04;;;;;;;6.55;2.67;;;;;;;20.93;81.61;101082.00;4971987;28;20035;-90
2023/08/05 10:16:31;;;;;;;4.10;2.60;;;;;;;20.82;82.09;101077.97;4969141;28;20466;-92
2023/08/05 10:18:56;;;;;;;6.88;2.72;;;;;;;20.70;82.86;101086.78;4981645;28;20041;-93
2023/08/05 10:21:36;;;;;;;3.87;3.07;;;;;;;20.87;81.73;101083.28;4974283;28;20034;-92
2023/08/05 10:24:01;;;;;;;5.45;3.22;;;;;;;20.71;82.51;101072.84;4970032;28;20026;-92
2023/08/05 10:26:44;;;;;;;3.93;2.67;;;;;;;21.05;81.60;101070.44;4971352;28;20027;-93
2023/08/05 10:29:25;;;;;;;4.65;2.60;;;;;;;21.12;80.81;101070.75;4970824;28;20054;-93
2023/08/05 10:31:50;;;;;;;3.10;2.78;;;;;;;21.27;80.70;101055.81;4989458;28;20113;-93
2023/08/05 10:34:19;;;;;;;3.67;2.77;;;;;;;21.56;81.27;101073.31;4972036;28;20061;-92
2023/08/05 10:36:48;;;;;;;2.83;2.58;;;;;;;21.69;80.01;101066.09;4970278;28;20027;-93
2023/08/05 10:39:44;;;;;;;7.05;2.97;;;;;;;21.69;81.34;101074.28;4956969;28;20023;-96
2023/08/05 10:42:28;;;;;;;5.30;3.30;;;;;;;21.43;82.29;101071.63;4963997;29;20618;-94
2023/08/05 10:44:54;;;;;;;7.65;3.50;;;;;;;21.24;81.50;101061.13;4958264;29;20082;-95
2023/08/05 10:47:21;;;;;;;3.85;3.47;;;;;;;21.51;80.98;101070.81;4964132;28;20032;-95
2023/08/05 10:49:49;;;;;;;6.93;3.28;;;;;;;21.54;74.04;101064.69;4960070;28;20051;-95
2023/08/05 10:52:22;;;;;;;5.47;2.90;;;;;;;21.56;75.96;101067.88;4966532;28;20034;-94
2023/08/05 10:54:49;;;;;;;4.53;2.90;;;;;;;21.61;74.89;101064.22;4966933;28;20369;-91
2023/08/05 10:57:32;;;;;;;3.78;2.63;;;;;;;21.71;75.90;101057.59;4955235;28;20402;-92
2023/08/05 11:00:02;;;;;;;5.53;2.75;;;;;;;22.07;73.97;101056.28;4993412;28;20038;-93
2023/08/05 11:02:28;;;;;;;6.35;2.80;;;;;;;22.46;71.65;101043.31;4973188;28;20041;-92
2023/08/05 11:05:08;;;;;;;4.35;2.53;;;;;;;23.06;70.76;101045.03;4987584;28;20075;-92
2023/08/05 11:07:37;;;;;;;3.90;2.37;;;;;;;23.32;66.43;101036.56;4986193;28;20030;-92
2023/08/05 11:10:06;;;;;;;2.38;2.13;;;;;;;23.86;65.64;101057.41;4969596;28;20065;-92
2023/08/05 11:12:31;;;;;;;4.25;2.80;;;;;;;24.23;60.76;101053.06;4974648;28;20023;-93
2023/08/05 11:14:58;;;;;;;2.92;2.55;;;;;;;24.19;58.01;101047.50;4974303;28;20034;-91
2023/08/05 11:17:24;;;;;;;3.13;2.47;;;;;;;23.68;58.83;101029.53;4974887;28;20019;-91
2023/08/05 11:19:50;;;;;;;3.08;2.58;;;;;;;23.20;61.93;101028.31;4974785;28;20029;-92
2023/08/05 11:22:26;;;;;;;4.25;2.75;;;;;;;23.20;64.41;101036.50;4973535;28;20042;-92
2023/08/05 11:25:03;;;;;;;3.53;2.30;;;;;;;23.02;66.23;101024.97;4977892;28;20035;-92
2023/08/05 11:27:33;;;;;;;4.03;2.70;;;;;;;22.72;64.85;101016.94;4977084;28;20285;-91
2023/08/05 11:30:11;;;;;;;5.07;2.50;;;;;;;22.44;66.20;101007.38;4973032;28;20023;-96
2023/08/05 11:32:58;;;;;;;8.70;2.80;;;;;;;22.59;67.55;101013.38;4981049;28;20073;-96
2023/08/05 11:35:26;;;;;;;3.60;2.63;;;;;;;22.47;67.56;101003.97;4985214;28;20028;-95
2023/08/05 11:38:06;;;;;;;4.30;2.70;;;;;;;22.43;69.09;101013.16;4984009;28;20031;-96
2023/08/05 11:40:32;;;;;;;5.63;2.60;;;;;;;22.04;67.19;100994.97;4985909;28;20099;-94
2023/08/05 11:42:58;;;;;;;6.33;3.20;;;;;;;21.80;70.65;101005.75;4993594;28;20329;-96
2023/08/05 11:45:24;;;;;;;6.10;2.90;;;;;;;21.32;71.95;100981.25;4985163;28;20081;-96